createdAt,value
2023-03-06T00:00:55.103Z,208.80
2023-03-06T00:01:55.181Z,200.70
2023-03-06T00:02:55.123Z,202.80
2023-03-06T00:03:54.960Z,214.80
2023-03-06T00:04:54.924Z,200.00
2023-03-06T00:05:55.091Z,225.00
2023-03-06T00:06:55.028Z,199.60
2023-03-06T00:07:55.213Z,226.40
2023-03-06T00:08:54.936Z,230.60
2023-03-06T00:09:54.930Z,222.00
2023-03-06T00:10:54.839Z,234.30
2023-03-06T00:11:54.936Z,214.80
2023-03-06T00:12:54.853Z,216.60
2023-03-06T00:13:54.842Z,216.10
2023-03-06T00:14:54.846Z,196.70
2023-03-06T00:15:54.932Z,243.90
2023-03-06T00:16:54.777Z,235.30
2023-03-06T00:17:54.898Z,216.50
2023-03-06T00:18:54.908Z,244.80
2023-03-06T00:19:55.701Z,234.70
2023-03-06T00:20:55.217Z,248.40
2023-03-06T00:21:55.215Z,222.00
2023-03-06T00:22:54.724Z,250.30
2023-03-06T00:23:54.917Z,247.80
2023-03-06T00:24:54.729Z,228.50
2023-03-06T00:25:54.646Z,260.60
2023-03-06T00:26:54.643Z,209.80
2023-03-06T00:27:54.773Z,251.70
2023-03-06T00:28:55.372Z,263.80
2023-03-06T00:29:54.955Z,274.50
2023-03-06T00:30:55.582Z,258.40
2023-03-06T00:31:54.884Z,254.60
2023-03-06T00:32:54.892Z,271.00
2023-03-06T00:33:54.797Z,281.20
2023-03-06T00:34:54.708Z,273.30
2023-03-06T00:35:54.543Z,278.60
2023-03-06T00:36:54.755Z,266.50
2023-03-06T00:37:54.797Z,270.00
2023-03-06T00:38:54.904Z,250.60
2023-03-06T00:39:56.554Z,263.70
2023-03-06T00:40:54.613Z,269.20
2023-03-06T00:41:54.737Z,270.30
2023-03-06T00:42:54.551Z,267.90
2023-03-06T00:43:54.536Z,260.20
2023-03-06T00:44:54.468Z,257.80
2023-03-06T00:45:54.510Z,236.20
2023-03-06T00:46:54.586Z,261.00
2023-03-06T00:47:54.481Z,230.50
2023-03-06T00:48:54.532Z,241.50
2023-03-06T00:49:54.601Z,203.90
2023-03-06T00:50:54.393Z,237.00
2023-03-06T00:51:55.233Z,230.70
2023-03-06T00:52:58.194Z,225.90
2023-03-06T00:53:54.415Z,227.00
2023-03-06T00:54:54.549Z,208.20
2023-03-06T00:55:54.549Z,225.70
2023-03-06T00:56:54.430Z,253.10
2023-03-06T00:57:54.732Z,274.40
2023-03-06T00:58:54.398Z,234.70
2023-03-06T00:59:54.209Z,229.30
2023-03-06T01:00:55.533Z,208.50
2023-03-06T01:01:54.749Z,243.60
2023-03-06T01:02:54.351Z,243.80
2023-03-06T01:03:54.730Z,246.40
2023-03-06T01:04:54.191Z,251.20
2023-03-06T01:05:54.696Z,207.60
2023-03-06T01:06:54.384Z,227.10
2023-03-06T01:07:54.422Z,201.20
2023-03-06T01:08:54.319Z,194.80
2023-03-06T01:09:55.760Z,248.40
2023-03-06T01:10:54.453Z,224.80
2023-03-06T01:11:54.929Z,258.60
2023-03-06T01:12:54.254Z,199.30
2023-03-06T01:13:54.386Z,193.70
2023-03-06T01:14:54.776Z,233.60
2023-03-06T01:15:54.173Z,207.30
2023-03-06T01:16:53.973Z,226.00
2023-03-06T01:17:53.974Z,202.20
2023-03-06T01:18:54.080Z,227.30
2023-03-06T01:19:53.967Z,229.60
2023-03-06T01:20:53.908Z,200.40
2023-03-06T01:21:53.880Z,194.50
2023-03-06T01:22:53.966Z,209.40
2023-03-06T01:23:54.013Z,222.60
2023-03-06T01:24:54.868Z,187.50
2023-03-06T01:25:53.923Z,247.70
2023-03-06T01:26:53.929Z,187.20
2023-03-06T01:27:53.831Z,220.40
2023-03-06T01:28:53.877Z,234.70
2023-03-06T01:29:53.786Z,222.10
2023-03-06T01:30:53.761Z,201.60
2023-03-06T01:31:54.003Z,188.70
2023-03-06T01:32:53.757Z,190.30
2023-03-06T01:33:54.219Z,232.00
2023-03-06T01:34:53.673Z,189.50
2023-03-06T01:35:53.778Z,201.80
2023-03-06T01:36:53.800Z,194.30
2023-03-06T01:37:53.803Z,209.70
2023-03-06T01:38:53.604Z,233.00
2023-03-06T01:39:55.040Z,225.80
2023-03-06T01:40:53.621Z,212.10
2023-03-06T01:41:53.638Z,196.00
2023-03-06T01:42:53.843Z,162.60
2023-03-06T01:43:54.051Z,165.30
2023-03-06T01:44:53.568Z,204.30
2023-03-06T01:45:54.276Z,201.50
2023-03-06T01:46:53.574Z,265.50
2023-03-06T01:47:53.668Z,165.90
2023-03-06T01:48:53.742Z,173.40
2023-03-06T01:49:53.568Z,205.50
2023-03-06T01:50:53.606Z,195.00
2023-03-06T01:51:53.590Z,172.20
2023-03-06T01:52:53.715Z,163.20
2023-03-06T01:53:53.593Z,173.70
2023-03-06T01:54:53.609Z,203.40
2023-03-06T01:55:53.545Z,159.50
2023-03-06T01:56:53.435Z,134.30
2023-03-06T01:57:53.874Z,173.60
2023-03-06T01:58:53.850Z,156.70
2023-03-06T01:59:53.467Z,147.90
2023-03-06T02:00:53.752Z,158.50
2023-03-06T02:01:53.368Z,154.60
2023-03-06T02:02:53.680Z,162.90
2023-03-06T02:03:54.813Z,171.30
2023-03-06T02:04:53.473Z,195.20
2023-03-06T02:05:53.385Z,151.10
2023-03-06T02:06:53.398Z,128.00
2023-03-06T02:07:53.500Z,156.50
2023-03-06T02:08:53.401Z,161.80
2023-03-06T02:09:53.321Z,149.60
2023-03-06T02:10:53.216Z,145.80
2023-03-06T02:11:53.418Z,155.10
2023-03-06T02:12:53.267Z,162.70
2023-03-06T02:13:53.239Z,172.10
2023-03-06T02:14:53.350Z,145.60
2023-03-06T02:15:53.262Z,156.90
2023-03-06T02:16:53.341Z,150.30
2023-03-06T02:17:53.188Z,158.00
2023-03-06T02:18:53.378Z,171.20
2023-03-06T02:19:53.307Z,162.70
2023-03-06T02:20:53.298Z,141.10
2023-03-06T02:21:53.323Z,175.10
2023-03-06T02:22:53.444Z,156.30
2023-03-06T02:23:53.242Z,149.40
2023-03-06T02:24:53.428Z,172.90
2023-03-06T02:25:53.136Z,157.60
2023-03-06T02:26:53.226Z,160.10
2023-03-06T02:27:53.248Z,137.00
2023-03-06T02:28:53.273Z,173.00
2023-03-06T02:29:53.585Z,148.30
2023-03-06T02:30:53.387Z,201.40
2023-03-06T02:31:53.501Z,134.50
2023-03-06T02:32:53.482Z,160.40
2023-03-06T02:33:53.583Z,158.00
2023-03-06T02:34:53.083Z,188.70
2023-03-06T02:35:53.277Z,157.70
2023-03-06T02:36:53.613Z,162.90
2023-03-06T02:37:53.800Z,130.00
2023-03-06T02:38:52.999Z,145.10
2023-03-06T02:39:57.635Z,142.30
2023-03-06T02:40:52.832Z,170.80
2023-03-06T02:41:52.929Z,135.60
2023-03-06T02:42:53.176Z,196.10
2023-03-06T02:43:52.954Z,169.00
2023-03-06T02:44:53.057Z,175.40
2023-03-06T02:45:53.096Z,120.70
2023-03-06T02:46:52.882Z,132.00
2023-03-06T02:47:53.080Z,144.90
2023-03-06T02:48:52.996Z,151.60
2023-03-06T02:49:52.787Z,158.00
2023-03-06T02:50:52.700Z,152.20
2023-03-06T02:51:52.831Z,168.60
2023-03-06T02:52:52.809Z,143.40
2023-03-06T02:53:52.737Z,127.50
2023-03-06T02:54:52.858Z,135.00
2023-03-06T02:55:52.820Z,151.30
2023-03-06T02:56:52.744Z,140.30
2023-03-06T02:57:52.736Z,144.80
2023-03-06T02:58:52.752Z,133.40
2023-03-06T02:59:52.739Z,134.20
2023-03-06T03:00:52.691Z,135.80
2023-03-06T03:01:52.800Z,147.80
2023-03-06T03:02:52.843Z,153.30
2023-03-06T03:03:52.885Z,149.00
2023-03-06T03:04:52.617Z,141.40
2023-03-06T03:05:52.776Z,143.70
2023-03-06T03:06:52.486Z,134.40
2023-03-06T03:07:52.593Z,131.50
2023-03-06T03:08:52.594Z,145.00
2023-03-06T03:09:52.716Z,135.70
2023-03-06T03:10:52.609Z,144.10
2023-03-06T03:11:52.534Z,131.60
2023-03-06T03:12:52.531Z,143.80
2023-03-06T03:13:52.462Z,104.00
2023-03-06T03:14:52.441Z,145.50
2023-03-06T03:15:52.785Z,150.80
2023-03-06T03:16:52.479Z,146.00
2023-03-06T03:17:52.274Z,173.70
2023-03-06T03:18:52.265Z,135.50
2023-03-06T03:19:52.486Z,136.10
2023-03-06T03:20:52.371Z,115.30
2023-03-06T03:21:52.261Z,113.40
2023-03-06T03:22:52.290Z,136.70
2023-03-06T03:23:52.320Z,150.90
2023-03-06T03:24:52.331Z,139.10
2023-03-06T03:25:52.319Z,130.00
2023-03-06T03:26:52.339Z,140.40
2023-03-06T03:27:55.394Z,129.50
2023-03-06T03:28:54.696Z,145.70
2023-03-06T03:29:54.891Z,114.30
2023-03-06T03:30:53.699Z,155.80
2023-03-06T03:31:54.834Z,137.20
2023-03-06T03:32:53.078Z,134.30
2023-03-06T03:33:55.121Z,137.70
2023-03-06T03:34:53.194Z,122.80
2023-03-06T03:35:52.242Z,127.80
2023-03-06T03:36:52.093Z,141.60
2023-03-06T03:37:52.293Z,129.70
2023-03-06T03:38:52.098Z,111.20
2023-03-06T03:39:52.113Z,137.90
2023-03-06T03:40:52.211Z,123.80
2023-03-06T03:41:51.941Z,127.40
2023-03-06T03:42:52.041Z,132.40
2023-03-06T03:43:52.046Z,121.70
2023-03-06T03:44:51.945Z,103.70
2023-03-06T03:45:52.053Z,122.10
2023-03-06T03:46:52.175Z,139.70
2023-03-06T03:47:52.169Z,131.90
2023-03-06T03:48:51.999Z,145.80
2023-03-06T03:49:51.869Z,150.10
2023-03-06T03:50:51.877Z,126.00
2023-03-06T03:51:52.111Z,151.00
2023-03-06T03:52:52.407Z,119.20
2023-03-06T03:53:51.934Z,134.20
2023-03-06T03:54:52.099Z,143.30
2023-03-06T03:55:51.912Z,172.50
2023-03-06T03:56:52.049Z,132.20
2023-03-06T03:57:51.854Z,136.50
2023-03-06T03:58:51.845Z,124.20
2023-03-06T03:59:51.733Z,124.70
2023-03-06T04:00:51.736Z,145.40
2023-03-06T04:01:52.226Z,157.10
2023-03-06T04:02:52.476Z,168.30
2023-03-06T04:03:52.271Z,149.00
2023-03-06T04:04:52.250Z,178.90
2023-03-06T04:05:51.990Z,160.20
2023-03-06T04:06:52.173Z,146.10
2023-03-06T04:07:51.907Z,144.00
2023-03-06T04:08:51.920Z,153.10
2023-03-06T04:09:51.819Z,144.40
2023-03-06T04:10:51.736Z,128.90
2023-03-06T04:11:51.932Z,154.70
2023-03-06T04:12:52.049Z,155.40
2023-03-06T04:13:52.226Z,140.30
2023-03-06T04:14:51.866Z,175.50
2023-03-06T04:15:52.902Z,195.80
2023-03-06T04:16:53.522Z,155.10
2023-03-06T04:17:52.235Z,165.90
2023-03-06T04:18:51.752Z,164.80
2023-03-06T04:19:51.664Z,150.90
2023-03-06T04:20:51.777Z,110.40
2023-03-06T04:21:51.506Z,152.90
2023-03-06T04:22:51.669Z,145.80
2023-03-06T04:23:51.494Z,143.50
2023-03-06T04:24:51.404Z,138.30
2023-03-06T04:25:51.470Z,110.90
2023-03-06T04:26:51.516Z,135.40
2023-03-06T04:27:51.525Z,131.50
2023-03-06T04:28:51.348Z,141.30
2023-03-06T04:29:51.633Z,126.20
2023-03-06T04:30:51.551Z,119.40
2023-03-06T04:31:51.649Z,132.10
2023-03-06T04:32:52.070Z,125.00
2023-03-06T04:33:51.694Z,111.40
2023-03-06T04:34:51.835Z,105.60
2023-03-06T04:35:55.517Z,101.70
2023-03-06T04:36:51.494Z,92.50
2023-03-06T04:37:51.386Z,89.00
2023-03-06T04:38:51.838Z,88.20
2023-03-06T04:39:51.191Z,80.60
2023-03-06T04:40:51.290Z,87.70
2023-03-06T04:41:51.214Z,82.50
2023-03-06T04:42:51.242Z,73.30
2023-03-06T04:43:51.130Z,79.30
2023-03-06T04:44:51.145Z,79.80
2023-03-06T04:45:51.109Z,87.80
2023-03-06T04:46:51.219Z,81.70
2023-03-06T04:47:51.165Z,80.70
2023-03-06T04:48:51.192Z,79.90
2023-03-06T04:49:51.077Z,97.30
2023-03-06T04:50:51.094Z,82.90
2023-03-06T04:51:51.193Z,76.70
2023-03-06T04:52:51.205Z,80.50
2023-03-06T04:53:51.182Z,79.40
2023-03-06T04:54:51.011Z,78.30
2023-03-06T04:55:51.208Z,62.60
2023-03-06T04:56:51.231Z,61.50
2023-03-06T04:57:51.005Z,61.40
2023-03-06T04:58:50.932Z,58.70
2023-03-06T04:59:51.358Z,65.60
2023-03-06T05:00:51.086Z,60.90
2023-03-06T05:01:51.025Z,62.70
2023-03-06T05:02:51.049Z,58.90
2023-03-06T05:03:50.873Z,54.50
2023-03-06T05:04:51.103Z,61.60
2023-03-06T05:05:50.983Z,61.00
2023-03-06T05:06:51.411Z,59.80
2023-03-06T05:07:50.987Z,70.50
2023-03-06T05:08:50.920Z,67.30
2023-03-06T05:09:50.896Z,70.70
2023-03-06T05:10:50.906Z,77.90
2023-03-06T05:11:50.936Z,73.90
2023-03-06T05:12:50.853Z,67.20
2023-03-06T05:13:50.829Z,65.50
2023-03-06T05:14:51.166Z,61.80
2023-03-06T05:15:51.955Z,57.80
2023-03-06T05:16:50.982Z,51.80
2023-03-06T05:17:50.669Z,68.40
2023-03-06T05:18:51.080Z,64.10
2023-03-06T05:19:50.675Z,60.20
2023-03-06T05:20:50.588Z,56.00
2023-03-06T05:21:50.775Z,57.90
2023-03-06T05:22:50.699Z,57.10
2023-03-06T05:23:50.767Z,57.60
2023-03-06T05:24:50.725Z,54.90
2023-03-06T05:25:50.731Z,56.40
2023-03-06T05:26:50.949Z,62.30
2023-03-06T05:27:51.325Z,63.40
2023-03-06T05:28:50.926Z,56.70
2023-03-06T05:29:50.725Z,63.70
2023-03-06T05:30:50.742Z,62.20
2023-03-06T05:31:50.925Z,63.20
2023-03-06T05:32:51.190Z,67.10
2023-03-06T05:33:51.001Z,65.10
2023-03-06T05:34:50.771Z,64.40
2023-03-06T05:35:50.898Z,60.10
2023-03-06T05:36:50.569Z,67.80
2023-03-06T05:37:50.510Z,55.00
2023-03-06T05:38:50.405Z,54.10
2023-03-06T05:39:50.484Z,50.30
2023-03-06T05:40:50.423Z,55.40
2023-03-06T05:41:50.641Z,55.10
2023-03-06T05:42:50.462Z,51.80
2023-03-06T05:43:50.347Z,56.20
2023-03-06T05:44:50.428Z,55.00
2023-03-06T05:45:50.477Z,47.50
2023-03-06T05:46:50.458Z,55.40
2023-03-06T05:47:50.370Z,42.10
2023-03-06T05:48:50.273Z,55.50
2023-03-06T05:49:50.293Z,49.10
2023-03-06T05:50:50.374Z,53.40
2023-03-06T05:51:50.304Z,70.30
2023-03-06T05:52:50.394Z,56.00
2023-03-06T05:53:50.220Z,61.40
2023-03-06T05:54:50.365Z,62.40
2023-03-06T05:55:50.331Z,60.80
2023-03-06T05:56:50.221Z,56.50
2023-03-06T05:57:50.226Z,51.60
2023-03-06T05:58:50.140Z,51.60
2023-03-06T05:59:50.596Z,50.20
2023-03-06T06:00:50.365Z,53.60
2023-03-06T06:01:50.248Z,55.70
2023-03-06T06:02:50.455Z,49.00
2023-03-06T06:03:50.608Z,45.80
2023-03-06T06:04:50.086Z,48.10
2023-03-06T06:05:50.197Z,47.30
2023-03-06T06:06:50.082Z,43.50
2023-03-06T06:07:50.097Z,43.80
2023-03-06T06:08:50.105Z,44.10
2023-03-06T06:09:50.109Z,42.30
2023-03-06T06:10:53.227Z,50.60
2023-03-06T06:11:50.113Z,50.90
2023-03-06T06:12:50.111Z,47.10
2023-03-06T06:13:50.052Z,43.40
2023-03-06T06:14:49.864Z,45.30
2023-03-06T06:15:49.997Z,39.20
2023-03-06T06:16:50.071Z,37.00
2023-03-06T06:17:49.854Z,44.40
2023-03-06T06:18:49.961Z,37.60
2023-03-06T06:19:49.759Z,39.80
2023-03-06T06:20:49.856Z,43.20
2023-03-06T06:21:50.076Z,35.20
2023-03-06T06:22:49.767Z,42.60
2023-03-06T06:23:49.777Z,42.90
2023-03-06T06:24:49.802Z,41.70
2023-03-06T06:25:49.821Z,44.00
2023-03-06T06:26:50.624Z,41.50
2023-03-06T06:27:49.607Z,41.00
2023-03-06T06:28:49.819Z,46.30
2023-03-06T06:29:50.156Z,44.50
2023-03-06T06:30:49.625Z,48.00
2023-03-06T06:31:50.507Z,40.70
2023-03-06T06:32:49.963Z,40.70
2023-03-06T06:33:49.798Z,40.30
2023-03-06T06:34:49.583Z,41.90
2023-03-06T06:35:50.001Z,43.50
2023-03-06T06:36:52.169Z,40.80
2023-03-06T06:37:49.673Z,39.20
2023-03-06T06:38:49.684Z,43.80
2023-03-06T06:39:49.599Z,34.70
2023-03-06T06:41:26.721Z,40.00
2023-03-06T06:42:05.620Z,39.20
2023-03-06T06:42:50.463Z,34.10
2023-03-06T06:43:49.525Z,36.50
2023-03-06T06:44:49.619Z,37.90
2023-03-06T06:45:49.712Z,39.20
2023-03-06T06:47:50.672Z,43.80
2023-03-06T06:48:49.452Z,47.30
2023-03-06T06:49:49.470Z,40.30
2023-03-06T06:50:49.456Z,39.00
2023-03-06T06:51:49.364Z,37.30
2023-03-06T06:52:49.419Z,32.90
2023-03-06T06:53:49.382Z,35.10
2023-03-06T06:54:49.504Z,32.90
2023-03-06T06:55:51.330Z,34.40
2023-03-06T06:56:49.452Z,26.80
2023-03-06T06:57:49.437Z,30.30
2023-03-06T06:58:49.321Z,32.60
2023-03-06T06:59:51.266Z,32.40
2023-03-06T07:00:49.259Z,27.30
2023-03-06T07:01:49.691Z,29.90
2023-03-06T07:02:49.370Z,30.80
2023-03-06T07:03:49.299Z,32.20
2023-03-06T07:05:03.117Z,32.10
2023-03-06T07:05:50.413Z,28.10
2023-03-06T07:06:49.185Z,28.60
2023-03-06T07:07:49.204Z,44.50
2023-03-06T07:08:49.106Z,27.20
2023-03-06T07:09:49.192Z,22.30
2023-03-06T07:10:49.133Z,20.00
2023-03-06T07:11:49.352Z,24.90
2023-03-06T07:12:49.206Z,22.90
2023-03-06T07:13:49.156Z,26.80
2023-03-06T07:14:49.163Z,22.50
2023-03-06T07:15:49.060Z,26.10
2023-03-06T07:16:49.042Z,37.40
2023-03-06T07:17:50.237Z,32.10
2023-03-06T07:18:49.062Z,45.60
2023-03-06T07:19:49.161Z,25.90
2023-03-06T07:20:48.991Z,30.10
2023-03-06T07:21:48.986Z,39.20
2023-03-06T07:22:51.663Z,29.10
2023-03-06T07:23:49.096Z,25.30
2023-03-06T07:24:49.110Z,28.90
2023-03-06T07:25:52.185Z,36.00
2023-03-06T07:26:52.917Z,42.60
2023-03-06T07:27:53.238Z,36.40
2023-03-06T07:28:52.621Z,28.30
2023-03-06T07:29:48.830Z,28.00
2023-03-06T07:30:48.822Z,35.10
2023-03-06T07:31:48.852Z,26.00
2023-03-06T07:32:48.848Z,24.50
2023-03-06T07:33:49.674Z,28.50
2023-03-06T07:34:48.773Z,24.80
2023-03-06T07:35:48.791Z,25.30
2023-03-06T07:36:48.777Z,23.60
2023-03-06T07:37:48.688Z,26.20
2023-03-06T07:38:49.034Z,18.90
2023-03-06T07:39:48.894Z,24.50
2023-03-06T07:40:48.711Z,21.40
2023-03-06T07:41:48.841Z,20.10
2023-03-06T07:42:48.738Z,17.30
2023-03-06T07:43:48.639Z,13.30
2023-03-06T07:44:48.656Z,15.60
2023-03-06T07:45:49.745Z,11.60
2023-03-06T07:46:49.726Z,13.30
2023-03-06T07:47:48.642Z,14.60
2023-03-06T07:48:48.659Z,11.50
2023-03-06T07:49:48.674Z,13.70
2023-03-06T07:50:48.589Z,11.10
2023-03-06T07:51:48.696Z,12.10
2023-03-06T07:52:48.496Z,16.10
2023-03-06T07:53:48.695Z,16.20
2023-03-06T07:54:48.890Z,15.30
2023-03-06T07:55:48.617Z,14.80
2023-03-06T07:56:48.721Z,17.40
2023-03-06T07:57:48.538Z,14.00
2023-03-06T07:58:48.519Z,18.00
2023-03-06T07:59:48.448Z,21.00
2023-03-06T08:00:48.553Z,15.20
2023-03-06T08:01:48.657Z,17.30
2023-03-06T08:02:48.481Z,18.70
2023-03-06T08:03:48.881Z,29.40
2023-03-06T08:04:48.598Z,36.60
2023-03-06T08:05:48.336Z,32.80
2023-03-06T08:06:48.408Z,36.80
2023-03-06T08:07:48.377Z,37.80
2023-03-06T08:08:48.652Z,38.10
2023-03-06T08:09:48.390Z,34.10
2023-03-06T08:10:48.324Z,38.70
2023-03-06T08:11:48.325Z,54.00
2023-03-06T08:12:48.334Z,44.80
2023-03-06T08:13:48.251Z,45.10
2023-03-06T08:14:48.727Z,43.30
2023-03-06T08:15:48.358Z,52.60
2023-03-06T08:16:48.334Z,57.90
2023-03-06T08:17:48.239Z,51.40
2023-03-06T08:18:48.246Z,51.30
2023-03-06T08:19:48.290Z,54.90
2023-03-06T08:20:48.171Z,57.10
2023-03-06T08:21:48.279Z,43.20
2023-03-06T08:22:48.192Z,48.00
2023-03-06T08:23:48.104Z,50.70
2023-03-06T08:24:48.104Z,50.10
2023-03-06T08:25:48.110Z,63.50
2023-03-06T08:26:48.113Z,51.70
2023-03-06T08:27:48.217Z,57.20
2023-03-06T08:28:48.022Z,65.80
2023-03-06T08:29:48.160Z,69.60
2023-03-06T08:30:48.073Z,62.80
2023-03-06T08:31:48.031Z,67.80
2023-03-06T08:32:48.182Z,63.50
2023-03-06T08:33:48.055Z,70.90
2023-03-06T08:34:47.954Z,77.30
2023-03-06T08:35:47.996Z,83.60
2023-03-06T08:36:47.974Z,71.40
2023-03-06T08:37:48.279Z,67.50
2023-03-06T08:38:48.491Z,80.40
2023-03-06T08:39:48.617Z,67.80
2023-03-06T08:40:48.015Z,68.50
2023-03-06T08:41:47.928Z,76.20
2023-03-06T08:42:47.908Z,68.40
2023-03-06T08:43:47.921Z,82.00
2023-03-06T08:44:47.921Z,56.80
2023-03-06T08:45:47.905Z,56.40
2023-03-06T08:46:47.835Z,65.60
2023-03-06T08:47:47.935Z,73.60
2023-03-06T08:48:48.064Z,75.50
2023-03-06T08:49:47.858Z,60.20
2023-03-06T08:50:47.806Z,59.00
2023-03-06T08:51:53.094Z,47.30
2023-03-06T08:52:47.773Z,48.90
2023-03-06T08:53:47.884Z,60.40
2023-03-06T08:54:47.713Z,57.30
2023-03-06T08:55:47.794Z,55.60
2023-03-06T08:56:47.535Z,54.40
2023-03-06T08:57:47.518Z,68.40
2023-03-06T08:58:47.604Z,39.70
2023-03-06T08:59:47.609Z,40.70
2023-03-06T09:00:47.628Z,56.30
2023-03-06T09:01:47.544Z,48.80
2023-03-06T09:02:47.548Z,37.30
2023-03-06T09:03:47.580Z,34.30
2023-03-06T09:04:47.461Z,35.70
2023-03-06T09:05:47.549Z,26.10
2023-03-06T09:06:47.573Z,28.90
2023-03-06T09:07:47.469Z,32.10
2023-03-06T09:08:47.575Z,33.00
2023-03-06T09:09:47.877Z,33.70
2023-03-06T09:10:47.335Z,31.20
2023-03-06T09:11:47.408Z,24.20
2023-03-06T09:12:51.293Z,26.20
2023-03-06T09:13:47.404Z,40.30
2023-03-06T09:14:47.313Z,28.70
2023-03-06T09:15:47.341Z,29.30
2023-03-06T09:16:47.636Z,38.10
2023-03-06T09:17:47.623Z,31.40
2023-03-06T09:18:47.571Z,28.80
2023-03-06T09:19:47.468Z,32.80
2023-03-06T09:20:47.477Z,30.20
2023-03-06T09:21:47.571Z,37.20
2023-03-06T09:22:47.378Z,24.70
2023-03-06T09:23:47.484Z,35.50
2023-03-06T09:24:47.391Z,26.40
2023-03-06T09:25:47.391Z,29.90
2023-03-06T09:26:48.873Z,26.40
2023-03-06T09:27:48.723Z,35.50
2023-03-06T09:28:47.313Z,24.50
2023-03-06T09:29:47.421Z,33.90
2023-03-06T09:30:47.357Z,25.60
2023-03-06T09:31:47.439Z,34.30
2023-03-06T09:32:47.335Z,29.50
2023-03-06T09:33:47.345Z,39.20
2023-03-06T09:34:47.247Z,33.10
2023-03-06T09:35:47.352Z,20.20
2023-03-06T09:36:56.534Z,31.40
2023-03-06T09:37:48.194Z,23.90
2023-03-06T09:38:47.212Z,30.40
2023-03-06T09:39:47.200Z,20.30
2023-03-06T09:40:47.196Z,31.40
2023-03-06T09:41:47.216Z,29.50
2023-03-06T09:42:47.206Z,28.30
2023-03-06T09:43:47.200Z,26.80
2023-03-06T09:44:47.119Z,27.70
2023-03-06T09:45:47.085Z,26.80
2023-03-06T09:46:47.147Z,30.60
2023-03-06T09:47:47.261Z,25.20
2023-03-06T09:48:47.058Z,37.40
2023-03-06T09:49:47.048Z,37.50
2023-03-06T09:50:47.097Z,24.60
2023-03-06T09:51:46.991Z,25.70
2023-03-06T09:52:47.097Z,17.90
2023-03-06T09:53:46.896Z,23.60
2023-03-06T09:54:46.925Z,24.30
2023-03-06T09:55:47.133Z,21.50
2023-03-06T09:56:49.244Z,24.40
2023-03-06T09:57:47.642Z,29.10
2023-03-06T09:58:47.107Z,23.80
2023-03-06T09:59:47.672Z,29.60
2023-03-06T10:00:47.756Z,23.80
2023-03-06T10:01:46.850Z,23.10
2023-03-06T10:02:48.123Z,21.90
2023-03-06T10:03:46.987Z,19.50
2023-03-06T10:06:22.601Z,21.80
2023-03-06T10:07:16.350Z,20.60
2023-03-06T10:08:16.704Z,21.80
2023-03-06T10:09:16.880Z,16.40
2023-03-06T10:10:16.186Z,20.00
2023-03-06T10:11:17.114Z,19.30
2023-03-06T10:12:16.284Z,18.40
2023-03-06T10:13:16.195Z,24.30
2023-03-06T10:14:16.496Z,15.50
2023-03-06T10:15:16.813Z,15.80
2023-03-06T10:16:16.384Z,17.10
2023-03-06T10:17:17.360Z,14.80
2023-03-06T10:18:16.571Z,17.80
2023-03-06T10:19:17.085Z,17.70
2023-03-06T10:20:17.988Z,20.30
2023-03-06T10:21:19.236Z,19.10
2023-03-06T10:22:15.994Z,18.50
2023-03-06T10:23:16.047Z,28.60
2023-03-06T10:24:17.127Z,23.00
2023-03-06T10:25:17.916Z,21.00
2023-03-06T10:26:17.773Z,17.70
2023-03-06T10:27:16.149Z,18.40
2023-03-06T10:28:16.708Z,18.60
2023-03-06T10:29:16.650Z,21.60
2023-03-06T10:30:17.036Z,20.70
2023-03-06T10:31:16.151Z,18.90
2023-03-06T10:32:30.392Z,27.40
2023-03-06T10:33:17.158Z,20.60
2023-03-06T10:34:15.781Z,18.50
2023-03-06T10:35:15.757Z,18.90
2023-03-06T10:36:16.173Z,22.50
2023-03-06T10:37:15.883Z,16.20
2023-03-06T10:38:15.776Z,12.90
2023-03-06T10:39:15.679Z,14.40
2023-03-06T10:40:15.666Z,13.30
2023-03-06T10:41:22.062Z,12.70
2023-03-06T10:42:17.022Z,13.60
2023-03-06T10:43:16.113Z,14.70
2023-03-06T10:44:15.710Z,13.80
2023-03-06T10:45:15.619Z,14.00
2023-03-06T10:46:15.580Z,15.00
2023-03-06T10:47:15.625Z,17.30
2023-03-06T10:48:15.921Z,16.60
2023-03-06T10:49:15.738Z,15.40
2023-03-06T10:50:16.161Z,14.10
2023-03-06T10:51:18.527Z,14.50
2023-03-06T10:52:15.661Z,11.80
2023-03-06T10:53:16.299Z,16.40
2023-03-06T10:54:16.804Z,13.00
2023-03-06T10:55:15.697Z,10.50
2023-03-06T10:56:15.682Z,14.30
2023-03-06T10:57:15.621Z,14.10
2023-03-06T10:58:15.732Z,14.70
2023-03-06T10:59:15.702Z,11.20
2023-03-06T11:00:15.706Z,11.00
2023-03-06T11:01:15.736Z,13.60
2023-03-06T11:02:15.542Z,15.50
2023-03-06T11:03:15.662Z,12.00
2023-03-06T11:04:15.672Z,11.00
2023-03-06T11:05:15.436Z,13.10
2023-03-06T11:06:15.458Z,15.10
2023-03-06T11:07:15.591Z,9.90
2023-03-06T11:08:15.396Z,11.50
2023-03-06T11:09:15.472Z,16.40
2023-03-06T11:10:15.806Z,11.00
2023-03-06T11:11:18.516Z,13.00
2023-03-06T11:12:16.408Z,11.40
2023-03-06T11:13:15.434Z,7.70
2023-03-06T11:14:15.399Z,8.70
2023-03-06T11:15:15.825Z,11.20
2023-03-06T11:16:15.387Z,10.20
2023-03-06T11:17:15.216Z,10.80
2023-03-06T11:18:15.246Z,8.60
2023-03-06T11:19:15.132Z,13.30
2023-03-06T11:20:15.227Z,7.80
2023-03-06T11:21:15.198Z,9.70
2023-03-06T11:22:15.182Z,9.20
2023-03-06T11:23:15.185Z,11.10
2023-03-06T11:24:15.197Z,11.00
2023-03-06T11:25:15.193Z,16.90
2023-03-06T11:26:15.121Z,12.40
2023-03-06T11:27:15.104Z,10.70
2023-03-06T11:28:14.905Z,9.00
2023-03-06T11:29:15.081Z,9.30
2023-03-06T11:30:15.524Z,9.20
2023-03-06T11:31:15.237Z,12.40
2023-03-06T11:32:15.424Z,10.40
2023-03-06T11:33:15.034Z,8.70
2023-03-06T11:34:15.041Z,7.00
2023-03-06T11:35:15.062Z,14.30
2023-03-06T11:36:15.078Z,10.30
2023-03-06T11:37:15.074Z,10.40
2023-03-06T11:38:14.965Z,8.40
2023-03-06T11:39:15.611Z,8.80
2023-03-06T11:40:14.858Z,7.70
2023-03-06T11:41:14.702Z,8.70
2023-03-06T11:42:14.899Z,5.80
2023-03-06T11:43:14.882Z,9.20
2023-03-06T11:44:15.005Z,8.10
2023-03-06T11:45:14.797Z,7.00
2023-03-06T11:46:14.904Z,6.30
2023-03-06T11:47:14.828Z,14.90
2023-03-06T11:48:14.750Z,7.70
2023-03-06T11:49:14.863Z,7.70
2023-03-06T11:50:14.748Z,8.90
2023-03-06T11:51:14.772Z,8.50
2023-03-06T11:52:14.761Z,6.80
2023-03-06T11:53:14.667Z,6.20
2023-03-06T11:54:14.576Z,5.00
2023-03-06T11:55:14.791Z,6.20
2023-03-06T11:56:14.708Z,6.50
2023-03-06T11:57:14.506Z,8.40
2023-03-06T11:58:14.681Z,6.30
2023-03-06T11:59:14.621Z,7.10
2023-03-06T12:00:14.622Z,6.00
2023-03-06T12:01:14.715Z,4.50
2023-03-06T12:02:14.472Z,4.40
2023-03-06T12:03:14.616Z,6.00
2023-03-06T12:04:14.628Z,5.10
2023-03-06T12:05:14.663Z,7.00
2023-03-06T12:06:14.445Z,6.10
2023-03-06T12:07:14.456Z,5.90
2023-03-06T12:08:14.465Z,4.10
2023-03-06T12:09:17.289Z,6.10
2023-03-06T12:10:14.891Z,3.80
2023-03-06T12:12:14.498Z,5.60
2023-03-06T12:13:14.791Z,5.50
2023-03-06T12:14:14.725Z,6.00
2023-03-06T12:15:14.499Z,5.10
2023-03-06T12:16:14.543Z,5.20
2023-03-06T12:17:14.436Z,5.50
2023-03-06T12:18:14.242Z,5.10
2023-03-06T12:19:14.437Z,5.90
2023-03-06T12:20:14.485Z,5.50
2023-03-06T12:21:14.346Z,5.30
2023-03-06T12:22:14.383Z,5.50
2023-03-06T12:23:15.869Z,5.40
2023-03-06T12:24:14.262Z,7.60
2023-03-06T12:25:14.174Z,4.30
2023-03-06T12:26:14.328Z,5.40
2023-03-06T12:27:14.221Z,3.70
2023-03-06T12:28:14.316Z,4.20
2023-03-06T12:29:14.194Z,7.20
2023-03-06T12:30:14.290Z,4.00
2023-03-06T12:31:14.196Z,8.20
2023-03-06T12:32:14.277Z,9.10
2023-03-06T12:33:14.213Z,5.00
2023-03-06T12:34:14.131Z,4.40
2023-03-06T12:35:14.141Z,4.20
2023-03-06T12:36:14.137Z,5.70
2023-03-06T12:37:14.145Z,5.80
2023-03-06T12:38:14.652Z,5.00
2023-03-06T12:39:14.147Z,4.00
2023-03-06T12:40:14.200Z,4.80
2023-03-06T12:41:14.099Z,4.20
2023-03-06T12:42:22.710Z,4.70
2023-03-06T12:43:15.084Z,2.70
2023-03-06T12:44:13.990Z,4.30
2023-03-06T12:45:14.001Z,3.30
2023-03-06T12:46:13.994Z,4.20
2023-03-06T12:47:13.931Z,3.00
2023-03-06T12:48:14.008Z,2.40
2023-03-06T12:49:23.022Z,2.80
2023-03-06T12:50:14.971Z,4.10